Latest Weather Observations for Lucinda

IDQ60801

Issued at 6:32 am EST Saturday 27 May 2017 (issued every 30 minutes, with the page automatically refreshed every 10 minutes)

About weather observations | Map of weather stations | Latest weather observations for QLD | Other Formats
Station Details ID: 032141 Name: LUCINDA POINT Lat: -18.52 Lon: 146.39 Height: 10.0 m
Data from the previous 72 hours. | See also: Recent months at Lucinda
Date/Time
EST
Temp
°C
App
Temp
°C
Dew
Point
°C
Rel
Hum
%
Delta-T
°C
Wind Press
QNH
hPa
Press
MSL
hPa
Rain since
9am
mm
Dir  Spd
km/h
Gust
km/h
Spd
kts
Gust
kts
27/06:30am 20.7 20.0 17.3 81 2.1 SW 17 20 9 11 1016.6 1016.6 0.0
27/06:00am 21.2 20.3 17.8 81 2.1 SW 19 24 10 13 1016.3 1016.3 0.0
27/05:30am 21.4 20.7 17.4 78 2.5 WSW 17 26 9 14 1016.1 1016.1 0.0
27/05:00am 21.0 19.8 17.6 81 2.1 WSW 20 24 11 13 1015.9 1015.9 0.0
27/04:30am 21.2 20.5 17.4 79 2.3 SW 17 20 9 11 1015.9 1015.9 0.0
27/04:00am 21.1 20.4 17.3 79 2.3 SW 17 20 9 11 1016.0 1016.0 0.0
27/03:30am 21.1 19.9 17.1 78 2.4 SW 19 20 10 11 1016.4 1016.4 0.0
27/03:00am 21.2 20.0 17.4 79 2.3 SW 20 20 11 11 1016.4 1016.4 0.0
27/02:30am 21.3 20.1 17.5 79 2.3 SW 20 24 11 13 1016.7 1016.7 0.0
27/02:00am 21.5 20.4 17.7 79 2.3 SW 20 20 11 11 1016.9 1016.9 0.0
27/01:30am 21.7 20.5 17.5 77 2.6 SW 20 24 11 13 1017.1 1017.1 0.0
27/01:00am 22.2 21.8 18.0 77 2.6 SSW 17 20 9 11 1017.0 1017.0 0.0
27/12:30am 21.9 21.8 17.9 78 2.5 SW 15 19 8 10 1017.2 1017.2 0.0
27/12:00am 22.1 21.1 17.9 77 2.6 SW 20 24 11 13 1017.4 1017.4 0.0
 
Date/Time
EST
Temp
°C
App
Temp
°C
Dew
Point
°C
Rel
Hum
%
Delta-T
°C
Wind Press
QNH
hPa
Press
MSL
hPa
Rain since
9am
mm
Dir  Spd
km/h
Gust
km/h
Spd
kts
Gust
kts
26/11:30pm 23.9 23.6 18.3 71 3.5 S 17 20 9 11 1017.3 1017.3 0.0
26/11:00pm 23.8 24.1 18.7 73 3.2 S 15 17 8 9 1017.4 1017.4 0.0
26/10:30pm 23.7 24.2 18.4 72 3.3 S 13 17 7 9 1017.3 1017.3 0.0
26/10:00pm 23.6 24.4 19.1 76 2.9 S 13 17 7 9 1017.3 1017.3 0.0
26/09:30pm 23.6 24.5 19.3 77 2.7 S 13 17 7 9 1017.4 1017.4 0.0
26/09:00pm 23.6 24.8 19.1 76 2.9 S 11 19 6 10 1017.3 1017.3 0.0
26/08:30pm 23.7 25.0 19.2 76 2.9 S 11 19 6 10 1017.2 1017.2 0.0
26/08:00pm 23.6 25.3 19.3 77 2.7 SSE 9 19 5 10 1016.8 1016.8 0.0
26/07:30pm 23.7 25.0 19.2 76 2.9 S 11 15 6 8 1016.6 1016.6 0.0
26/07:00pm 23.9 24.8 19.2 75 3.0 SSE 13 20 7 11 1016.1 1016.1 0.0
26/06:30pm 23.9 24.7 19.0 74 3.1 SSE 13 20 7 11 1015.9 1015.9 0.0
26/06:00pm 24.1 25.1 18.7 72 3.4 SSE 11 19 6 10 1015.6 1015.6 0.0
26/05:30pm 24.4 24.2 17.6 66 4.2 SE 15 22 8 12 1015.2 1015.2 0.0
26/05:00pm 24.9 25.2 17.9 65 4.4 SE 13 22 7 12 1014.9 1014.9 0.0
26/04:30pm 24.8 24.2 17.5 64 4.6 SE 17 24 9 13 1014.8 1014.8 0.0
26/04:00pm 24.6 25.9 19.2 72 3.5 S 11 17 6 9 1014.8 1014.8 0.0
26/03:30pm 24.3 25.0 19.6 75 3.0 S 15 20 8 11 1015.0 1015.0 0.0
26/03:00pm 24.0 23.7 19.5 76 2.9 S 20 24 11 13 1015.2 1015.2 0.0
26/02:30pm 23.9 23.7 19.8 78 2.6 S 20 24 11 13 1015.3 1015.3 0.0
26/02:00pm 23.7 22.9 19.2 76 2.9 S 22 26 12 14 1015.7 1015.7 0.0
26/01:30pm 23.5 22.8 18.6 74 3.1 S 20 24 11 13 1016.1 1016.1 0.0
26/01:00pm 23.6 22.9 18.7 74 3.1 S 20 22 11 12 1016.6 1016.6 0.0
26/12:30pm 23.5 22.9 18.8 75 3.0 S 20 24 11 13 1017.1 1017.1 0.0
26/12:00pm 23.5 22.7 18.4 73 3.2 S 20 24 11 13 1017.4 1017.4 0.0
26/11:30am 23.0 22.5 18.7 77 2.7 SSW 19 24 10 13 1017.7 1017.7 0.0
26/11:00am 22.6 22.4 18.4 77 2.6 SSW 17 20 9 11 1017.9 1017.9 0.0
26/10:30am 22.4 21.7 18.2 77 2.6 SSW 19 22 10 12 1018.1 1018.1 0.0
26/10:00am 22.3 22.1 17.7 75 2.8 SSW 15 19 8 10 1018.2 1018.2 0.0
26/09:30am 22.1 21.6 17.7 76 2.7 SSW 17 19 9 10 1018.2 1018.2 0.0
26/09:00am 21.6 21.1 17.8 79 2.3 SW 17 20 9 11 1018.0 1018.0 0.0
26/08:30am 21.0 21.1 18.4 85 1.6 SW 15 17 8 9 1017.7 1017.7 0.0
26/08:00am 20.5 20.5 18.1 86 1.5 WSW 15 17 8 9 1017.5 1017.5 0.0
26/07:30am 20.1 20.1 18.2 89 1.2 WSW 15 17 8 9 1017.2 1017.2 0.0
26/07:00am 20.2 20.3 18.3 89 1.2 WSW 15 17 8 9 1016.7 1016.7 0.0
26/06:30am 20.1 19.7 18.1 88 1.2 WSW 17 19 9 10 1016.5 1016.5 0.0
26/06:00am 20.6 19.9 18.2 86 1.5 SW 19 20 10 11 1016.1 1016.1 0.0
26/05:30am 20.5 20.2 18.3 87 1.4 WSW 17 17 9 9 1015.9 1015.9 0.0
26/05:00am 20.4 20.1 18.3 88 1.3 WSW 17 17 9 9 1015.8 1015.8 0.0
26/04:30am 20.2 19.4 18.1 88 1.3 WSW 19 20 10 11 1015.6 1015.6 0.0
26/04:00am 20.5 20.1 18.1 86 1.5 WSW 17 20 9 11 1015.7 1015.7 0.0
26/03:30am 20.2 19.8 18.0 87 1.4 WSW 17 19 9 10 1015.7 1015.7 0.0
26/03:00am 20.6 20.2 18.0 85 1.6 WSW 17 19 9 10 1016.1 1016.1 0.0
26/02:30am 21.0 20.5 17.8 82 2.0 SW 17 19 9 10 1016.2 1016.2 0.0
26/02:00am 20.9 20.4 17.7 82 2.0 WSW 17 19 9 10 1016.4 1016.4 0.0
26/01:30am 21.1 20.3 17.9 82 2.0 SW 19 20 10 11 1016.7 1016.7 0.0
26/01:00am 21.0 20.5 17.8 82 2.0 SW 17 19 9 10 1017.0 1017.0 0.0
26/12:30am 21.9 22.6 18.9 83 1.9 SW 13 17 7 9 1017.1 1017.1 0.0
26/12:00am 22.5 22.9 18.9 80 2.3 SSW 15 20 8 11 1017.3 1017.3 0.0
 
Date/Time
EST
Temp
°C
App
Temp
°C
Dew
Point
°C
Rel
Hum
%
Delta-T
°C
Wind Press
QNH
hPa
Press
MSL
hPa
Rain since
9am
mm
Dir  Spd
km/h
Gust
km/h
Spd
kts
Gust
kts
25/11:30pm 23.8 24.8 19.5 77 2.8 ESE 13 22 7 12 1017.3 1017.3 0.0
25/11:00pm 23.8 24.3 19.3 76 2.9 SE 15 26 8 14 1017.5 1017.5 0.0
25/10:30pm 23.6 24.9 19.3 77 2.7 SE 11 22 6 12 1017.7 1017.7 0.0
25/10:00pm 23.5 24.4 19.2 77 2.7 SE 13 20 7 11 1017.8 1017.8 0.0
25/09:30pm 23.6 24.1 19.3 77 2.7 SE 15 22 8 12 1017.7 1017.7 0.0
25/09:00pm 23.6 24.0 18.9 75 3.0 SE 15 22 8 12 1017.6 1017.6 0.0
25/08:30pm 23.4 24.6 19.1 77 2.7 ESE 11 20 6 11 1017.5 1017.5 0.0
25/08:00pm 23.3 24.6 19.2 78 2.6 SE 11 20 6 11 1017.1 1017.1 0.0
25/07:30pm 23.3 23.9 18.6 75 3.0 SE 13 19 7 10 1016.9 1016.9 0.0
25/07:00pm 23.5 24.3 18.2 72 3.3 SE 11 19 6 10 1016.5 1016.5 0.0
25/06:30pm 23.6 24.2 17.8 70 3.6 ESE 11 20 6 11 1016.4 1016.4 0.0
25/06:00pm 23.9 24.7 17.2 66 4.1 SSE 9 17 5 9 1016.2 1016.2 0.0
25/05:30pm 24.5 26.1 17.0 63 4.6 SSE 4 7 2 4 1016.0 1016.0 0.0
25/05:00pm 25.1 26.6 17.6 63 4.7 S 6 11 3 6 1015.9 1015.9 0.0
25/04:30pm 24.7 24.6 16.9 62 4.8 S 13 15 7 8 1015.8 1015.8 0.0
25/04:00pm 24.4 23.5 16.9 63 4.6 S 17 20 9 11 1015.7 1015.7 0.0
25/03:30pm 24.3 22.8 16.8 63 4.6 S 20 24 11 13 1015.6 1015.6 0.0
25/03:00pm 24.3 22.8 16.8 63 4.6 S 20 24 11 13 1015.7 1015.7 0.0
25/02:30pm 24.3 22.6 15.8 59 5.1 S 19 22 10 12 1015.9 1015.9 0.0
25/02:00pm 24.4 22.6 15.6 58 5.3 S 19 20 10 11 1016.1 1016.1 0.0
25/01:30pm 24.2 22.2 14.9 56 5.6 S 19 22 10 12 1016.4 1016.4 0.0
25/01:00pm 24.2 22.7 16.2 61 4.9 S 19 24 10 13 1016.9 1016.9 0.0
25/12:30pm 23.9 22.7 16.2 62 4.7 S 17 20 9 11 1017.4 1017.4 0.0
25/12:00pm 23.7 22.7 16.5 64 4.4 SSW 17 20 9 11 1017.8 1017.8 0.0
25/11:30am 23.5 22.8 17.3 68 3.8 SSW 17 20 9 11 1017.9 1017.9 0.0
25/11:00am 23.0 21.9 16.3 66 4.1 SSW 17 22 9 12 1018.1 1018.1 0.0
25/10:30am 22.8 21.7 16.4 67 3.9 SSW 17 20 9 11 1018.2 1018.2 0.0
25/10:00am 22.6 21.7 16.9 70 3.5 SSW 17 22 9 12 1018.3 1018.3 0.0
25/09:30am 22.3 21.2 16.3 69 3.6 SW 17 20 9 11 1018.3 1018.3 0.0
25/09:00am 21.6 20.3 16.8 74 2.9 WSW 19 20 10 11 1018.0 1018.0 0.0
25/08:30am 21.3 20.0 16.9 76 2.7 WSW 19 20 10 11 1017.7 1017.7 0.0
25/08:00am 21.1 20.1 17.5 80 2.2 WSW 19 20 10 11 1017.5 1017.5 0.0
25/07:30am 21.2 20.4 17.0 77 2.6 SW 17 20 9 11 1017.2 1017.2 0.0
25/07:00am 20.9 19.8 17.3 80 2.2 WSW 19 20 10 11 1017.0 1017.0 0.0
25/06:30am 20.7 19.9 18.1 85 1.6 WSW 19 20 10 11 1016.7 1016.7 0.0
25/06:00am 20.3 19.5 18.1 87 1.4 WSW 19 20 10 11 1016.3 1016.3 0.0
25/05:30am 20.5 19.7 18.1 86 1.5 WSW 19 20 10 11 1016.1 1016.1 0.0
25/05:00am 20.6 19.9 18.2 86 1.5 WSW 19 20 10 11 1015.7 1015.7 0.0
25/04:30am 21.0 20.2 18.4 85 1.6 SW 20 22 11 12 1015.6 1015.6 0.0
25/04:00am 20.8 19.7 18.6 87 1.4 SW 22 24 12 13 1015.6 1015.6 0.0
25/03:30am 20.8 20.1 18.7 88 1.3 SW 20 22 11 12 1015.8 1015.8 0.0
25/03:00am 21.3 20.8 19.2 88 1.3 SW 20 24 11 13 1015.9 1015.9 0.0
25/02:30am 21.2 20.8 18.9 87 1.4 SW 19 20 10 11 1016.0 1016.0 0.0
25/02:00am 21.5 21.2 19.1 86 1.5 SW 19 20 10 11 1016.4 1016.4 0.0
25/01:30am 21.5 21.2 19.2 87 1.5 SW 19 20 10 11 1016.7 1016.7 0.0
25/01:00am 21.5 21.0 19.1 86 1.5 SW 20 22 11 12 1017.1 1017.1 0.0
25/12:30am 21.3 20.8 19.0 87 1.5 SW 20 20 11 11 1017.3 1017.3 0.0
25/12:00am 21.6 21.2 19.3 87 1.5 SW 20 22 11 12 1017.5 1017.5 0.0
 
Date/Time
EST
Temp
°C
App
Temp
°C
Dew
Point
°C
Rel
Hum
%
Delta-T
°C
Wind Press
QNH
hPa
Press
MSL
hPa
Rain since
9am
mm
Dir  Spd
km/h
Gust
km/h
Spd
kts
Gust
kts
24/11:30pm 21.7 21.3 19.3 86 1.5 SW 20 24 11 13 1017.7 1017.7 0.0
24/11:00pm 22.3 22.9 19.5 84 1.8 SSW 15 19 8 10 1017.8 1017.8 0.0
24/10:30pm 23.8 24.4 18.7 73 3.2 S 13 19 7 10 1018.0 1018.0 0.0
24/10:00pm 24.0 24.2 17.7 68 3.9 S 13 17 7 9 1017.9 1017.9 0.0
24/09:30pm 23.9 23.9 18.1 70 3.6 S 15 19 8 10 1017.8 1017.8 0.0
24/09:00pm 23.9 24.1 17.6 68 3.9 S 13 19 7 10 1017.9 1017.9 0.0
24/08:30pm 23.9 24.7 18.1 70 3.6 S 11 15 6 8 1017.7 1017.7 0.0
24/08:00pm 23.8 25.0 18.2 71 3.5 S 9 11 5 6 1017.5 1017.5 0.0
24/07:30pm 23.7 25.1 17.7 69 3.7 S 7 11 4 6 1017.1 1017.1 0.0
24/07:00pm 23.8 24.8 17.8 69 3.7 S 9 15 5 8 1016.9 1016.9 0.0
24/06:30pm 23.7 25.1 18.6 73 3.2 SE 9 17 5 9 1016.7 1016.7 0.0
24/06:00pm 23.5 25.0 19.0 76 2.9 SE 9 17 5 9 1016.4 1016.4 0.0
24/05:30pm 23.9 25.4 19.0 74 3.1 SE 9 17 5 9 1016.3 1016.3 0.0
24/05:00pm 24.2 25.1 19.3 74 3.1 SE 13 20 7 11 1016.0 1016.0 0.0
24/04:30pm 24.2 24.5 18.8 72 3.4 SE 15 24 8 13 1015.9 1015.9 0.0
24/04:00pm 24.4 25.0 19.5 74 3.1 SE 15 22 8 12 1016.0 1016.0 0.0
24/03:30pm 24.2 24.3 18.4 70 3.7 SE 15 24 8 13 1015.8 1015.8 0.0
24/03:00pm 24.9 25.6 18.8 69 3.9 SE 13 20 7 11 1015.9 1015.9 0.0
24/02:30pm 24.8 25.4 18.7 69 3.9 S 13 24 7 13 1016.2 1016.2 0.0
24/02:00pm 24.2 23.2 18.8 72 3.4 S 22 26 12 14 1016.4 1016.4 0.0
24/01:30pm 24.0 23.3 18.6 72 3.4 S 20 28 11 15 1016.7 1016.7 0.0
24/01:00pm 24.0 23.0 18.9 73 3.2 S 22 30 12 16 1017.1 1017.1 0.0
24/12:30pm 23.8 22.4 18.9 74 3.1 S 24 30 13 16 1017.7 1017.7 0.0
24/12:00pm 23.7 21.5 18.8 74 3.1 S 28 32 15 17 1018.0 1018.0 0.0
24/11:30am 23.7 21.6 19.0 75 3.0 S 28 33 15 18 1018.4 1018.4 0.0
24/11:00am 23.9 21.7 18.8 73 3.2 S 28 35 15 19 1018.7 1018.7 0.0
24/10:30am 23.7 21.8 19.4 77 2.8 S 28 37 15 20 1018.9 1018.9 0.0
24/10:00am 23.8 22.0 19.5 77 2.7 S 28 35 15 19 1019.2 1019.2 0.0
24/09:30am 23.8 22.3 19.5 77 2.8 S 26 32 14 17 1019.1 1019.1 0.0
24/09:00am 24.0 23.5 19.9 78 2.6 S 22 30 12 16 1018.9 1018.9 0.2
24/08:30am 23.9 23.0 19.8 78 2.6 S 24 30 13 16 1018.5 1018.5 0.2
24/08:00am 23.8 23.9 19.9 79 2.5 S 19 28 10 15 1018.0 1018.0 0.2
24/07:30am 23.8 23.7 19.9 79 2.5 S 20 30 11 16 1017.7 1017.7 0.2
24/07:00am 23.8 24.1 20.3 81 2.3 S 19 26 10 14 1017.4 1017.4 0.2

Other Formats:

Comma delimited format used in spreadsheet applications
http://www.bom.gov.au/fwo/IDQ60801/IDQ60801.94295.axf

JavaScript Object Notation format (JSON) in row-major order
http://www.bom.gov.au/fwo/IDQ60801/IDQ60801.94295.json